Time;durP1;ratioP1;P1;durP2;ratioP2;P2;SDS_P1;SDS_P2;PMS_P1;PMS_P2;Temp;Humidity;BMP_temperature;BMP_pressure;BME280_temperature;BME280_humidity;BME280_pressure;Samples;Min_cycle;Max_cycle;Signal;HPM_P1;HPM_P2
2022/03/01 00:02:22;;;;;;;42.17;18.55;;;;;;;-0.78;100.00;102767.78;5224241;28;20437;-70
2022/03/01 00:04:53;;;;;;;37.67;16.77;;;;;;;-0.83;100.00;102764.41;5223819;28;20099;-69
2022/03/01 00:07:23;;;;;;;42.45;17.70;;;;;;;-0.86;100.00;102754.81;5224449;28;20021;-69
2022/03/01 00:09:54;;;;;;;45.97;18.13;;;;;;;-0.85;100.00;102766.25;5224197;28;20028;-69
2022/03/01 00:12:24;;;;;;;43.28;19.08;;;;;;;-0.88;100.00;102766.34;5223750;28;20556;-69
2022/03/01 00:14:55;;;;;;;43.63;17.85;;;;;;;-0.87;100.00;102774.19;5224006;28;20435;-69
2022/03/01 00:17:25;;;;;;;39.00;17.95;;;;;;;-0.78;100.00;102767.78;5223858;28;20016;-69
2022/03/01 00:19:56;;;;;;;42.22;18.63;;;;;;;-0.80;100.00;102766.97;5224041;28;20107;-70
2022/03/01 00:22:26;;;;;;;47.17;18.95;;;;;;;-0.86;100.00;102762.72;5223680;28;20019;-69
2022/03/01 00:24:57;;;;;;;46.10;19.08;;;;;;;-0.86;100.00;102767.13;5223684;28;20104;-69
2022/03/01 00:27:27;;;;;;;45.30;18.83;;;;;;;-0.87;100.00;102768.91;5223996;28;20298;-69
2022/03/01 00:29:58;;;;;;;44.50;19.27;;;;;;;-0.90;100.00;102766.38;5223603;28;20471;-69
2022/03/01 00:32:28;;;;;;;47.05;18.92;;;;;;;-0.93;100.00;102755.94;5224069;28;20497;-69
2022/03/01 00:34:59;;;;;;;44.25;18.60;;;;;;;-0.95;100.00;102756.91;5223606;28;20032;-70
2022/03/01 00:37:29;;;;;;;43.28;18.27;;;;;;;-0.96;100.00;102760.41;5223789;28;20108;-69
2022/03/01 00:40:00;;;;;;;48.28;19.83;;;;;;;-0.98;100.00;102762.25;5223675;28;20056;-69
2022/03/01 00:42:30;;;;;;;41.38;17.27;;;;;;;-1.00;100.00;102762.31;5223156;28;20025;-69
2022/03/01 00:45:01;;;;;;;46.10;17.83;;;;;;;-0.97;100.00;102763.97;5223439;28;20070;-69
2022/03/01 00:47:31;;;;;;;43.42;19.48;;;;;;;-0.94;100.00;102763.88;5223511;28;20025;-69
2022/03/01 00:50:02;;;;;;;39.17;17.77;;;;;;;-0.92;100.00;102767.31;5223405;28;20044;-69
2022/03/01 00:52:33;;;;;;;42.20;17.88;;;;;;;-0.88;100.00;102766.34;5223087;28;20027;-69
2022/03/01 00:55:04;;;;;;;49.35;19.15;;;;;;;-0.82;100.00;102772.28;5222728;28;20394;-69
2022/03/01 00:57:34;;;;;;;46.35;17.90;;;;;;;-0.80;100.00;102764.34;5223210;28;20399;-69
2022/03/01 01:00:06;;;;;;;44.83;18.48;;;;;;;-0.75;100.00;102772.97;5223460;28;20029;-69
2022/03/01 01:02:36;;;;;;;41.72;18.60;;;;;;;-0.73;100.00;102773.78;5223117;28;20025;-69
2022/03/01 01:05:07;;;;;;;50.25;18.50;;;;;;;-0.74;100.00;102776.47;5222927;28;20437;-69
2022/03/01 01:07:38;;;;;;;43.25;18.00;;;;;;;-0.73;100.00;102776.41;5222766;28;20040;-69
2022/03/01 01:10:10;;;;;;;42.15;18.08;;;;;;;-0.70;100.00;102781.59;5223025;28;20013;-69
2022/03/01 01:12:41;;;;;;;43.17;18.08;;;;;;;-0.65;100.00;102774.41;5221419;28;20025;-68
2022/03/01 01:15:14;;;;;;;50.78;18.77;;;;;;;-0.59;100.00;102778.63;5222926;28;20025;-69
2022/03/01 01:17:45;;;;;;;39.00;16.67;;;;;;;-0.57;100.00;102776.81;5222834;28;20063;-69
2022/03/01 01:20:16;;;;;;;44.58;17.95;;;;;;;-0.56;100.00;102768.84;5222621;28;20025;-69
2022/03/01 01:22:47;;;;;;;40.60;18.85;;;;;;;-0.50;100.00;102772.19;5222624;28;20076;-69
2022/03/01 01:25:20;;;;;;;47.25;18.35;;;;;;;-0.49;100.00;102768.66;5222553;28;20033;-69
2022/03/01 01:27:53;;;;;;;42.53;17.88;;;;;;;-0.51;100.00;102768.69;5223136;28;20036;-69
2022/03/01 01:30:27;;;;;;;42.75;19.00;;;;;;;-0.52;100.00;102769.59;5222206;28;20021;-69
2022/03/01 01:32:57;;;;;;;44.92;18.35;;;;;;;-0.53;100.00;102757.34;5222254;28;20108;-69
2022/03/01 01:35:30;;;;;;;45.08;17.58;;;;;;;-0.55;100.00;102756.53;5222254;28;20450;-69
2022/03/01 01:38:01;;;;;;;44.17;18.13;;;;;;;-0.58;100.00;102765.41;5222422;28;20482;-69
2022/03/01 01:40:33;;;;;;;42.70;17.95;;;;;;;-0.59;100.00;102754.91;5222903;28;20087;-69
2022/03/01 01:43:06;;;;;;;38.55;15.95;;;;;;;-0.61;100.00;102760.19;5221773;28;20029;-69
2022/03/01 01:45:36;;;;;;;40.78;15.88;;;;;;;-0.55;100.00;102764.44;5222224;28;20021;-69
2022/03/01 01:48:07;;;;;;;40.35;15.85;;;;;;;-0.38;100.00;102770.03;5222207;28;20389;-69
2022/03/01 01:50:37;;;;;;;43.85;16.75;;;;;;;-0.20;100.00;102776.50;5222410;28;20696;-69
2022/03/01 01:53:08;;;;;;;38.05;15.23;;;;;;;-0.16;100.00;102775.47;5221907;28;20398;-69
2022/03/01 01:55:38;;;;;;;39.00;15.02;;;;;;;-0.24;100.00;102764.34;5221954;28;20323;-69
2022/03/01 01:58:09;;;;;;;40.15;16.48;;;;;;;-0.26;100.00;102764.34;5221237;28;20116;-69
2022/03/01 02:00:39;;;;;;;35.35;16.08;;;;;;;-0.31;100.00;102762.78;5222464;28;20036;-68
2022/03/01 02:03:10;;;;;;;35.38;15.25;;;;;;;-0.35;100.00;102758.50;5221156;28;20053;-69
2022/03/01 02:05:40;;;;;;;40.17;16.90;;;;;;;-0.40;100.00;102760.44;5221958;28;20028;-69
2022/03/01 02:08:16;;;;;;;40.08;16.98;;;;;;;-0.44;100.00;102746.50;5222472;28;20021;-70
2022/03/01 02:10:46;;;;;;;40.58;15.48;;;;;;;-0.46;100.00;102752.72;5222177;28;20170;-70
2022/03/01 02:13:17;;;;;;;36.15;15.80;;;;;;;-0.46;100.00;102756.22;5221478;28;20439;-70
2022/03/01 02:15:48;;;;;;;36.47;15.82;;;;;;;-0.31;100.00;102752.22;5222091;28;20020;-69
2022/03/01 02:18:20;;;;;;;39.60;15.32;;;;;;;-0.19;100.00;102753.63;5221638;28;20047;-69
2022/03/01 02:20:51;;;;;;;42.17;16.23;;;;;;;-0.18;100.00;102755.34;5221880;28;20025;-69
2022/03/01 02:23:21;;;;;;;37.33;16.25;;;;;;;-0.27;100.00;102753.88;5221477;28;20031;-69
2022/03/01 02:25:52;;;;;;;32.17;15.20;;;;;;;-0.36;100.00;102748.88;5221533;28;20029;-69
2022/03/01 02:28:22;;;;;;;38.55;17.10;;;;;;;-0.42;100.00;102749.09;5221877;28;20515;-69
2022/03/01 02:30:55;;;;;;;33.85;15.30;;;;;;;-0.46;100.00;102745.69;5221856;28;20590;-69
2022/03/01 02:33:25;;;;;;;37.15;15.85;;;;;;;-0.49;100.00;102737.88;5221676;28;20028;-69
2022/03/01 02:35:55;;;;;;;34.92;15.57;;;;;;;-0.50;100.00;102741.44;5221636;28;20029;-70
2022/03/01 02:38:26;;;;;;;38.97;16.17;;;;;;;-0.47;100.00;102741.31;5221882;28;20104;-69
2022/03/01 02:40:57;;;;;;;36.22;15.15;;;;;;;-0.52;100.00;102743.25;5222316;28;20025;-69
2022/03/01 02:43:28;;;;;;;39.78;15.23;;;;;;;-0.54;100.00;102734.53;5221528;28;20040;-69
2022/03/01 02:45:58;;;;;;;40.97;15.63;;;;;;;-0.54;100.00;102739.81;5221872;28;20064;-69
2022/03/01 02:48:29;;;;;;;41.78;16.10;;;;;;;-0.52;100.00;102738.81;5221871;28;20029;-69
2022/03/01 02:51:00;;;;;;;37.75;16.58;;;;;;;-0.50;100.00;102741.44;5221808;28;20024;-69
2022/03/01 02:53:31;;;;;;;39.72;15.38;;;;;;;-0.49;100.00;102731.75;5221491;28;20025;-69
2022/03/01 02:56:07;;;;;;;38.45;15.88;;;;;;;-0.45;100.00;102736.88;5221608;28;20487;-69
2022/03/01 02:58:38;;;;;;;38.80;16.48;;;;;;;-0.43;100.00;102735.03;5222110;28;20108;-69
2022/03/01 03:01:12;;;;;;;39.75;16.00;;;;;;;-0.43;100.00;102732.41;5221448;28;20104;-69
2022/03/01 03:03:45;;;;;;;38.70;15.43;;;;;;;-0.42;100.00;102735.91;5222026;28;20025;-69
2022/03/01 03:06:17;;;;;;;37.13;15.48;;;;;;;-0.44;100.00;102737.75;5221226;28;20043;-69
2022/03/01 03:08:48;;;;;;;33.38;14.77;;;;;;;-0.42;100.00;102734.13;5230107;22;20045;-76
2022/03/01 03:11:19;;;;;;;40.20;15.32;;;;;;;-0.35;100.00;102738.31;5226570;28;20029;-76
2022/03/01 03:13:49;;;;;;;42.67;16.08;;;;;;;-0.37;100.00;102739.25;5226357;28;20033;-76
2022/03/01 03:16:20;;;;;;;43.92;15.50;;;;;;;-0.37;100.00;102736.63;5225908;28;20021;-76
2022/03/01 03:18:50;;;;;;;36.88;15.25;;;;;;;-0.38;100.00;102746.31;5222459;28;20083;-76
2022/03/01 03:21:21;;;;;;;42.83;16.75;;;;;;;-0.37;100.00;102748.03;5226553;28;20013;-75
2022/03/01 03:23:51;;;;;;;42.78;15.65;;;;;;;-0.35;100.00;102745.31;5226775;28;20075;-76
2022/03/01 03:26:22;;;;;;;39.20;14.98;;;;;;;-0.34;100.00;102740.03;5218326;28;20075;-76
2022/03/01 03:28:52;;;;;;;38.72;14.63;;;;;;;-0.31;100.00;102746.97;5229473;28;20020;-76
2022/03/01 03:31:23;;;;;;;40.15;15.95;;;;;;;-0.30;100.00;102743.44;5222103;28;20434;-76
2022/03/01 03:33:53;;;;;;;39.30;15.60;;;;;;;-0.28;100.00;102738.97;5230180;28;20028;-76
2022/03/01 03:36:23;;;;;;;40.80;15.05;;;;;;;-0.28;100.00;102739.81;5229726;28;20071;-76
2022/03/01 03:38:54;;;;;;;37.58;15.45;;;;;;;-0.26;100.00;102731.84;5204202;28;20025;-76
2022/03/01 03:41:24;;;;;;;38.65;15.55;;;;;;;-0.24;100.00;102732.69;5224739;28;20025;-76
2022/03/01 03:43:55;;;;;;;35.72;14.35;;;;;;;-0.23;100.00;102737.03;5228699;28;20118;-76
2022/03/01 03:46:26;;;;;;;35.33;14.70;;;;;;;-0.22;100.00;102735.25;5228971;28;20358;-76
2022/03/01 03:48:56;;;;;;;33.55;13.95;;;;;;;-0.21;100.00;102734.34;5230057;28;20429;-76
2022/03/01 03:51:27;;;;;;;41.80;14.88;;;;;;;-0.19;100.00;102736.03;5211812;28;20028;-76
2022/03/01 03:53:57;;;;;;;40.78;15.98;;;;;;;-0.16;100.00;102740.31;5229813;28;20106;-76
2022/03/01 03:56:28;;;;;;;35.22;14.68;;;;;;;-0.13;100.00;102740.22;5229063;28;20032;-76
2022/03/01 03:58:59;;;;;;;34.92;14.68;;;;;;;-0.11;100.00;102749.81;5228339;28;20032;-76
2022/03/01 04:01:29;;;;;;;44.05;16.17;;;;;;;-0.11;100.00;102741.03;5217775;28;20025;-76
2022/03/01 04:04:00;;;;;;;32.28;14.35;;;;;;;-0.13;100.00;102737.59;5231922;28;20044;-76
2022/03/01 04:06:31;;;;;;;36.72;14.88;;;;;;;-0.15;100.00;102731.50;5231043;28;20497;-76
2022/03/01 04:09:03;;;;;;;43.72;16.38;;;;;;;-0.14;100.00;102735.88;5230167;28;20478;-76
2022/03/01 04:11:33;;;;;;;35.42;15.35;;;;;;;-0.18;100.00;102728.97;5220344;28;20021;-76
2022/03/01 04:14:04;;;;;;;34.33;14.82;;;;;;;-0.17;100.00;102725.41;5230833;28;20035;-76
2022/03/01 04:16:34;;;;;;;41.55;15.90;;;;;;;-0.14;100.00;102730.59;5229985;28;20393;-76
2022/03/01 04:19:06;;;;;;;34.75;14.35;;;;;;;-0.05;100.00;102733.78;5216133;28;20080;-76
2022/03/01 04:21:36;;;;;;;39.92;15.00;;;;;;;-0.03;100.00;102736.38;5229552;28;20025;-76
2022/03/01 04:24:07;;;;;;;35.55;15.25;;;;;;;-0.03;100.00;102737.22;5231166;28;20090;-76
2022/03/01 04:26:37;;;;;;;35.65;14.57;;;;;;;-0.01;100.00;102740.66;5229691;28;20069;-77
2022/03/01 04:29:08;;;;;;;39.85;14.80;;;;;;;0.02;100.00;102729.16;5230333;28;20055;-76
2022/03/01 04:31:38;;;;;;;38.38;15.73;;;;;;;0.06;100.00;102729.94;5230056;28;20047;-77
2022/03/01 04:34:09;;;;;;;39.42;15.90;;;;;;;0.06;100.00;102719.38;5227258;28;20020;-76
2022/03/01 04:36:39;;;;;;;35.38;15.38;;;;;;;0.08;100.00;102717.53;5229511;28;20029;-77
2022/03/01 04:39:10;;;;;;;35.90;14.98;;;;;;;0.09;100.00;102725.38;5229998;28;20033;-76
2022/03/01 04:41:40;;;;;;;35.08;13.98;;;;;;;0.11;100.00;102720.94;5231228;28;20024;-77
2022/03/01 04:44:11;;;;;;;34.83;15.25;;;;;;;0.10;100.00;102719.22;5227475;28;20025;-75
2022/03/01 04:46:42;;;;;;;36.15;15.10;;;;;;;0.10;100.00;102716.56;5228116;28;20024;-74
2022/03/01 04:49:12;;;;;;;38.72;14.43;;;;;;;0.09;100.00;102716.59;5215284;28;20473;-75
2022/03/01 04:51:43;;;;;;;38.80;14.57;;;;;;;0.09;100.00;102719.25;5228246;28;20017;-75
2022/03/01 04:54:13;;;;;;;34.65;14.10;;;;;;;0.07;100.00;102716.66;5226903;28;20048;-75
2022/03/01 04:56:44;;;;;;;35.28;15.13;;;;;;;0.09;100.00;102713.97;5227472;28;20017;-75
2022/03/01 04:59:14;;;;;;;38.70;14.88;;;;;;;0.10;100.00;102721.84;5229318;28;20032;-77
2022/03/01 05:01:45;;;;;;;35.97;14.25;;;;;;;0.12;100.00;102712.09;5229118;28;20036;-75
2022/03/01 05:04:15;;;;;;;43.08;15.95;;;;;;;0.14;100.00;102712.88;5228289;28;20122;-75
2022/03/01 05:06:46;;;;;;;34.05;14.60;;;;;;;0.18;100.00;102713.66;5228731;28;20036;-75
2022/03/01 05:09:16;;;;;;;37.88;14.38;;;;;;;0.19;100.00;102710.94;5229203;28;20424;-75
2022/03/01 05:11:50;;;;;;;31.65;13.68;;;;;;;0.20;100.00;102712.69;5229200;28;20409;-75
2022/03/01 05:14:20;;;;;;;29.83;12.98;;;;;;;0.21;100.00;102709.13;5228001;28;20033;-75
2022/03/01 05:16:51;;;;;;;33.35;13.27;;;;;;;0.24;100.00;102713.44;5228328;28;20021;-74
2022/03/01 05:19:21;;;;;;;29.52;13.65;;;;;;;0.24;100.00;102716.06;5215180;28;20041;-75
2022/03/01 05:21:52;;;;;;;30.20;13.95;;;;;;;0.23;100.00;102712.56;5228251;28;20044;-74
2022/03/01 05:24:22;;;;;;;36.58;13.32;;;;;;;0.22;100.00;102702.94;5227674;28;20093;-75
2022/03/01 05:26:54;;;;;;;37.38;14.50;;;;;;;0.23;100.00;102709.06;5228332;28;20456;-75
2022/03/01 05:29:24;;;;;;;37.60;13.90;;;;;;;0.24;100.00;102709.00;5228263;28;20031;-74
2022/03/01 05:31:55;;;;;;;34.03;14.18;;;;;;;0.27;100.00;102707.19;5226576;28;20021;-74
2022/03/01 05:34:25;;;;;;;37.40;14.15;;;;;;;0.29;100.00;102700.94;5227809;28;20290;-75
2022/03/01 05:36:56;;;;;;;32.22;13.88;;;;;;;0.31;100.00;102704.41;5226963;28;20029;-75
2022/03/01 05:39:26;;;;;;;36.55;13.85;;;;;;;0.31;100.00;102706.19;5228141;28;20025;-75
2022/03/01 05:41:57;;;;;;;36.35;14.27;;;;;;;0.32;100.00;102713.16;5227599;28;20056;-75
2022/03/01 05:44:27;;;;;;;38.10;14.55;;;;;;;0.34;100.00;102703.41;5226890;28;20298;-75
2022/03/01 05:46:59;;;;;;;33.33;13.18;;;;;;;0.37;100.00;102703.31;5227198;28;20262;-75
2022/03/01 05:49:29;;;;;;;33.95;13.48;;;;;;;0.41;100.00;102710.22;5226328;28;20044;-74
2022/03/01 05:52:00;;;;;;;30.50;12.07;;;;;;;0.42;100.00;102717.19;5223642;28;20095;-75
2022/03/01 05:54:31;;;;;;;34.20;13.35;;;;;;;0.42;100.00;102712.78;5224823;28;20485;-74
2022/03/01 05:57:01;;;;;;;30.25;13.65;;;;;;;0.41;100.00;102705.78;5222739;28;20025;-75
2022/03/01 05:59:32;;;;;;;32.80;13.93;;;;;;;0.41;100.00;102707.56;5225661;28;20029;-75
2022/03/01 06:02:03;;;;;;;34.10;13.00;;;;;;;0.37;100.00;102704.16;5211771;28;20028;-76
2022/03/01 06:04:33;;;;;;;27.92;12.50;;;;;;;0.36;100.00;102701.59;5225869;28;20024;-75
2022/03/01 06:07:04;;;;;;;36.95;15.05;;;;;;;0.30;100.00;102697.38;5225005;28;20029;-75
2022/03/01 06:09:34;;;;;;;33.22;13.02;;;;;;;0.28;100.00;102699.22;5212648;28;20036;-75
2022/03/01 06:12:05;;;;;;;29.17;13.35;;;;;;;0.21;100.00;102695.94;5225141;28;20024;-74
2022/03/01 06:14:36;;;;;;;30.55;12.27;;;;;;;0.17;100.00;102696.94;5226097;28;20086;-75
2022/03/01 06:17:06;;;;;;;29.05;13.50;;;;;;;0.14;100.00;102697.06;5225398;28;20074;-77
2022/03/01 06:19:37;;;;;;;37.75;13.93;;;;;;;0.10;100.00;102691.94;5223807;28;20108;-79
2022/03/01 06:22:08;;;;;;;29.75;13.27;;;;;;;0.07;100.00;102697.34;5202689;28;20056;-75
2022/03/01 06:24:40;;;;;;;37.30;13.68;;;;;;;0.07;100.00;102702.63;5211617;28;20029;-75
2022/03/01 06:27:11;;;;;;;28.23;12.85;;;;;;;0.05;100.00;102707.06;5227509;28;20107;-76
2022/03/01 06:29:42;;;;;;;33.97;13.10;;;;;;;0.05;100.00;102709.69;5229179;28;20088;-76
2022/03/01 06:32:12;;;;;;;30.13;12.65;;;;;;;0.02;100.00;102710.69;5211441;28;20024;-75
2022/03/01 06:34:43;;;;;;;33.83;13.63;;;;;;;-0.02;100.00;102707.28;5227873;28;20055;-76
2022/03/01 06:37:13;;;;;;;33.55;13.00;;;;;;;-0.04;100.00;102709.13;5210623;28;20146;-76
2022/03/01 06:39:45;;;;;;;34.58;13.73;;;;;;;-0.04;100.00;102703.84;5221161;28;20393;-79
2022/03/01 06:42:17;;;;;;;37.97;14.90;;;;;;;-0.04;100.00;102703.00;5225557;28;20048;-74
2022/03/01 06:44:47;;;;;;;46.25;14.07;;;;;;;-0.02;100.00;102722.25;5223674;28;20024;-74
2022/03/01 06:47:18;;;;;;;31.15;13.15;;;;;;;0.01;100.00;102714.25;5225305;28;20505;-74
2022/03/01 06:49:48;;;;;;;32.95;12.32;;;;;;;0.02;100.00;102708.06;5225821;28;20021;-74
2022/03/01 06:52:19;;;;;;;32.25;12.77;;;;;;;0.04;100.00;102700.94;5225036;28;20036;-74
2022/03/01 06:54:49;;;;;;;35.50;15.32;;;;;;;0.09;100.00;102711.31;5207118;28;20056;-74
2022/03/01 06:57:20;;;;;;;36.05;14.35;;;;;;;0.15;100.00;102709.34;5225307;28;20025;-74
2022/03/01 06:59:53;;;;;;;42.63;15.63;;;;;;;0.19;100.00;102718.88;5226474;28;20028;-74
2022/03/01 07:02:26;;;;;;;40.55;15.32;;;;;;;0.24;100.00;102709.00;5229475;28;20503;-76
2022/03/01 07:04:56;;;;;;;35.30;13.75;;;;;;;0.33;100.00;102710.47;5228632;28;20021;-76
2022/03/01 07:07:27;;;;;;;34.50;15.98;;;;;;;0.41;100.00;102712.84;5228353;28;20492;-76
2022/03/01 07:09:58;;;;;;;38.70;14.07;;;;;;;0.47;100.00;102704.69;5229109;28;20017;-75
2022/03/01 07:12:28;;;;;;;36.72;13.80;;;;;;;0.59;100.00;102711.28;5229023;28;20111;-76
2022/03/01 07:14:59;;;;;;;35.85;15.85;;;;;;;0.93;100.00;102742.63;5229523;28;20063;-76
2022/03/01 07:17:29;;;;;;;34.58;15.27;;;;;;;1.15;100.00;102742.66;5228564;28;20029;-77
2022/03/01 07:20:00;;;;;;;40.58;15.25;;;;;;;1.12;100.00;102741.00;5219065;28;20159;-76
2022/03/01 07:22:30;;;;;;;39.05;16.75;;;;;;;1.15;100.00;102730.28;5226159;28;20397;-77
2022/03/01 07:25:01;;;;;;;39.42;16.98;;;;;;;1.18;100.00;102729.31;5229874;28;20425;-76
2022/03/01 07:27:32;;;;;;;44.53;14.98;;;;;;;1.19;100.00;102720.47;5231512;28;20151;-76
2022/03/01 07:30:03;;;;;;;31.38;13.18;;;;;;;1.22;100.00;102715.06;5230724;28;20500;-77
2022/03/01 07:32:33;;;;;;;33.05;13.88;;;;;;;1.33;100.00;102728.72;5228455;28;20112;-74
2022/03/01 07:35:04;;;;;;;28.63;13.57;;;;;;;1.40;100.00;102729.31;5230645;28;20024;-74
2022/03/01 07:37:37;;;;;;;35.15;13.88;;;;;;;1.38;100.00;102731.19;5212590;28;20404;-75
2022/03/01 07:40:11;;;;;;;32.92;13.40;;;;;;;1.40;100.00;102734.63;5234690;28;20013;-79
2022/03/01 07:42:42;;;;;;;29.90;12.98;;;;;;;1.47;100.00;102744.03;5235655;28;20550;-81
2022/03/01 07:45:13;;;;;;;33.20;13.20;;;;;;;1.44;100.00;102737.06;5201982;28;20028;-79
2022/03/01 07:47:44;;;;;;;41.78;14.48;;;;;;;1.45;100.00;102730.00;5236583;28;20096;-81
2022/03/01 07:50:14;;;;;;;33.10;12.65;;;;;;;1.48;100.00;102728.09;5236245;28;20017;-81
2022/03/01 07:52:46;;;;;;;29.73;13.02;;;;;;;1.55;100.00;102732.22;5238126;28;20370;-81
2022/03/01 07:55:17;;;;;;;31.40;13.57;;;;;;;1.63;100.00;102737.22;5237485;28;20025;-82
2022/03/01 07:57:47;;;;;;;30.85;13.23;;;;;;;1.73;100.00;102748.28;5237100;28;20027;-82
2022/03/01 08:00:19;;;;;;;28.95;13.18;;;;;;;1.84;100.00;102750.47;5236692;28;20116;-79
2022/03/01 08:02:52;;;;;;;32.00;13.95;;;;;;;1.89;100.00;102751.16;5236910;28;20074;-80
2022/03/01 08:05:23;;;;;;;33.45;14.15;;;;;;;2.01;100.00;102750.66;5223608;28;20025;-80
2022/03/01 08:07:56;;;;;;;25.00;11.93;;;;;;;2.11;100.00;102748.44;5239826;28;20033;-81
2022/03/01 08:10:27;;;;;;;37.85;14.77;;;;;;;2.16;100.00;102760.59;5236704;28;20013;-81
2022/03/01 08:12:58;;;;;;;30.02;13.30;;;;;;;2.24;100.00;102758.47;5236408;28;20032;-81
2022/03/01 08:15:28;;;;;;;35.40;14.75;;;;;;;2.31;100.00;102759.94;5233704;28;20037;-81
2022/03/01 08:17:59;;;;;;;30.58;12.45;;;;;;;2.44;100.00;102760.25;5229517;28;20489;-82
2022/03/01 08:20:30;;;;;;;32.58;12.95;;;;;;;2.57;100.00;102758.78;5220949;28;20021;-82
2022/03/01 08:23:02;;;;;;;29.52;12.85;;;;;;;2.68;100.00;102768.91;5229453;28;20032;-82
2022/03/01 08:25:32;;;;;;;31.85;14.20;;;;;;;2.78;100.00;102772.88;5236144;28;20032;-82
2022/03/01 08:28:03;;;;;;;38.35;15.10;;;;;;;2.86;100.00;102764.56;5232149;28;20029;-83
2022/03/01 08:30:35;;;;;;;33.90;13.77;;;;;;;2.96;100.00;102772.94;5231384;28;20083;-82
2022/03/01 08:33:05;;;;;;;36.95;13.05;;;;;;;3.08;100.00;102769.75;5236080;28;20036;-82
2022/03/01 08:35:36;;;;;;;41.78;15.60;;;;;;;3.22;100.00;102777.94;5235896;28;20032;-82
2022/03/01 08:38:07;;;;;;;38.72;13.27;;;;;;;3.37;100.00;102771.06;5235516;28;20027;-82
2022/03/01 08:40:39;;;;;;;34.97;13.68;;;;;;;3.49;100.00;102757.19;5235214;28;20021;-82
2022/03/01 08:43:11;;;;;;;36.03;14.15;;;;;;;3.61;100.00;102761.91;5232502;28;20075;-82
2022/03/01 08:45:42;;;;;;;35.42;14.13;;;;;;;3.78;100.00;102761.09;5234076;28;20089;-82
2022/03/01 08:48:13;;;;;;;32.78;12.80;;;;;;;3.90;100.00;102759.59;5233333;28;20021;-82
2022/03/01 08:50:43;;;;;;;31.00;13.68;;;;;;;4.02;100.00;102769.63;5230098;28;20025;-78
2022/03/01 08:53:15;;;;;;;35.60;13.73;;;;;;;4.12;100.00;102764.72;5231868;28;20029;-81
2022/03/01 08:55:46;;;;;;;32.35;13.57;;;;;;;4.16;100.00;102766.25;5231034;28;20020;-80
2022/03/01 08:58:16;;;;;;;31.45;13.95;;;;;;;4.26;100.00;102762.19;5232584;28;20032;-81
2022/03/01 09:00:47;;;;;;;30.90;13.75;;;;;;;4.30;100.00;102757.59;5205027;28;20021;-81
2022/03/01 09:03:18;;;;;;;34.45;14.60;;;;;;;4.35;100.00;102772.34;5234287;28;20037;-81
2022/03/01 09:05:48;;;;;;;44.35;15.50;;;;;;;4.44;100.00;102768.38;5231248;28;20021;-81
2022/03/01 09:08:19;;;;;;;35.50;15.02;;;;;;;4.55;100.00;102784.59;5235968;28;20053;-81
2022/03/01 09:10:49;;;;;;;39.55;15.38;;;;;;;4.62;100.00;102775.41;5234384;28;20047;-80
2022/03/01 09:13:20;;;;;;;34.45;13.82;;;;;;;4.80;100.00;102781.53;5205249;28;20025;-80
2022/03/01 09:15:50;;;;;;;28.55;12.18;;;;;;;4.87;100.00;102785.59;5233082;28;20020;-81
2022/03/01 09:18:21;;;;;;;31.30;14.27;;;;;;;4.91;100.00;102780.94;5208116;28;20462;-81
2022/03/01 09:20:52;;;;;;;30.95;13.25;;;;;;;5.02;100.00;102780.34;5223872;28;20044;-81
2022/03/01 09:23:22;;;;;;;36.58;15.07;;;;;;;5.12;100.00;102778.91;5201328;28;20108;-80
2022/03/01 09:25:53;;;;;;;34.38;14.70;;;;;;;5.18;100.00;102779.47;5215460;28;20028;-82
2022/03/01 09:28:24;;;;;;;34.08;13.25;;;;;;;5.24;100.00;102782.72;5223631;28;20103;-83
2022/03/01 09:30:54;;;;;;;27.23;13.23;;;;;;;5.38;100.00;102786.34;5233495;28;20024;-80
2022/03/01 09:33:25;;;;;;;28.70;13.27;;;;;;;5.33;100.00;102785.75;5233008;28;20024;-82
2022/03/01 09:35:55;;;;;;;28.30;12.88;;;;;;;5.35;100.00;102793.63;5227462;28;20454;-81
2022/03/01 09:38:26;;;;;;;30.45;13.18;;;;;;;5.35;100.00;102802.47;5229981;28;20021;-80
2022/03/01 09:40:58;;;;;;;37.15;15.65;;;;;;;5.30;100.00;102796.53;5212212;28;20020;-80
2022/03/01 09:43:28;;;;;;;36.75;15.15;;;;;;;5.26;100.00;102788.81;5231870;28;20029;-81
2022/03/01 09:45:59;;;;;;;33.95;14.82;;;;;;;5.53;100.00;102794.41;5201778;28;20070;-81
2022/03/01 09:48:29;;;;;;;31.33;14.57;;;;;;;5.60;100.00;102798.44;5227419;28;20031;-83
2022/03/01 09:51:01;;;;;;;31.77;13.75;;;;;;;5.79;100.00;102798.28;5212982;28;20021;-82
2022/03/01 09:53:33;;;;;;;30.15;14.82;;;;;;;5.89;100.00;102802.13;5223750;28;20032;-81
2022/03/01 09:56:04;;;;;;;38.17;14.40;;;;;;;5.94;100.00;102800.09;5224326;28;20107;-81
2022/03/01 09:58:36;;;;;;;37.28;15.05;;;;;;;6.04;100.00;102797.75;5224072;28;20028;-82
2022/03/01 10:01:07;;;;;;;29.52;13.38;;;;;;;6.13;100.00;102797.22;5221934;28;20031;-81
2022/03/01 10:03:38;;;;;;;38.40;13.02;;;;;;;6.17;100.00;102796.06;5232138;28;20088;-82
2022/03/01 10:06:11;;;;;;;25.85;12.32;;;;;;;6.35;100.00;102810.13;5225849;28;20021;-84
2022/03/01 10:08:43;;;;;;;30.13;13.27;;;;;;;6.48;100.00;102805.78;5197554;28;20074;-80
2022/03/01 10:11:16;;;;;;;28.33;12.48;;;;;;;6.58;100.00;102801.63;5225787;28;20036;-79
2022/03/01 10:13:47;;;;;;;32.88;13.52;;;;;;;6.66;100.00;102794.00;5207681;28;20116;-81
2022/03/01 10:16:18;;;;;;;26.75;12.60;;;;;;;6.66;100.00;102794.00;5223265;28;20100;-81
2022/03/01 10:18:53;;;;;;;27.42;12.45;;;;;;;6.73;100.00;102786.50;5224935;28;20115;-81
2022/03/01 10:21:25;;;;;;;30.20;11.82;;;;;;;6.86;100.00;102779.44;5223433;28;20032;-79
2022/03/01 10:23:58;;;;;;;29.92;11.77;;;;;;;6.96;100.00;102788.56;5210005;28;20166;-81
2022/03/01 10:26:31;;;;;;;26.63;11.77;;;;;;;6.89;100.00;102789.94;5211948;28;20067;-82
2022/03/01 10:29:02;;;;;;;25.85;12.20;;;;;;;6.90;100.00;102793.44;5226196;28;20054;-80
2022/03/01 10:31:34;;;;;;;27.38;12.25;;;;;;;6.96;100.00;102796.59;5224821;28;20013;-80
2022/03/01 10:34:24;;;;;;;23.40;11.25;;;;;;;6.98;100.00;102810.72;5223955;28;20088;-81
2022/03/01 10:36:54;;;;;;;22.05;11.48;;;;;;;6.90;100.00;102804.97;5225968;28;20388;-80
2022/03/01 10:39:28;;;;;;;28.92;11.90;;;;;;;6.98;100.00;102789.34;5228892;28;20054;-81
2022/03/01 10:41:58;;;;;;;27.48;12.52;;;;;;;7.00;100.00;102802.59;5223019;28;20045;-81
2022/03/01 10:44:30;;;;;;;28.80;11.90;;;;;;;6.89;100.00;102805.06;5197626;28;20057;-82
2022/03/01 10:47:02;;;;;;;27.23;11.57;;;;;;;6.93;100.00;102806.59;5221177;28;20052;-80
2022/03/01 10:49:34;;;;;;;28.45;11.88;;;;;;;6.87;100.00;102813.16;5217069;28;20025;-81
2022/03/01 10:52:08;;;;;;;30.83;12.18;;;;;;;6.95;100.00;102816.22;5225483;28;20500;-81
2022/03/01 10:54:41;;;;;;;25.67;11.68;;;;;;;7.10;100.00;102802.88;5226854;28;20048;-81
2022/03/01 10:57:22;;;;;;;27.13;12.73;;;;;;;7.20;100.00;102804.03;5225796;28;20527;-81
2022/03/01 10:59:52;;;;;;;31.42;12.57;;;;;;;7.33;100.00;102796.97;5220598;28;20384;-79
2022/03/01 11:02:23;;;;;;;26.98;12.43;;;;;;;7.46;100.00;102805.88;5215286;28;20082;-81
2022/03/01 11:04:54;;;;;;;22.33;11.02;;;;;;;7.47;100.00;102806.72;5210256;28;20039;-81
2022/03/01 11:07:29;;;;;;;28.48;12.00;;;;;;;7.53;100.00;102817.91;5225838;28;20100;-79
2022/03/01 11:10:01;;;;;;;27.35;11.63;;;;;;;7.77;100.00;102812.75;5223720;28;20013;-83
2022/03/01 11:12:33;;;;;;;28.73;11.98;;;;;;;7.99;100.00;102814.03;5223815;28;20505;-82
2022/03/01 11:15:22;;;;;;;22.48;11.32;;;;;;;8.16;100.00;102819.13;5228224;28;20053;-83
2022/03/01 11:18:16;;;;;;;26.15;11.25;;;;;;;8.14;100.00;102820.19;5221994;28;20029;-85
2022/03/01 11:20:49;;;;;;;23.75;11.30;;;;;;;8.15;100.00;102819.22;5220888;28;20496;-84
2022/03/01 11:23:23;;;;;;;22.88;10.63;;;;;;;8.02;100.00;102805.81;5208929;28;20447;-83
2022/03/01 11:25:54;;;;;;;26.13;12.18;;;;;;;7.94;100.00;102806.34;5233141;28;20020;-83